Nouakchott, Mauritania
Current Conditions -  °F | °C
As of 1:00 PM on Saturday 20 Dec 2014 (Local Time) from GQNN Reporting Station
Sand / Dust Storm Sand / Dust Storm  
Wind Chill: 79°   Ceiling: Unl
Heat Index: 79°   Visibility: 2.5mi
Dew Point: 28°   Wind: 12mph
Humidity: 16%   Direction: 100°E
Pressure: 30.03"   Gusts: NA
Location:  18.09°N, 15.98°W
Report Text: GQNN 201300Z 10010KT 4000 DU NSC 26/M02 Q1017 NOSIG
Loading
Personal Weather Stations






























Interactive Weather Map New forecast layout! Learn more

10-Day Weather Forecast

Advertisements
Track Severe Weather on mobile